Windsor Locks, CT

2:39 PM EDT on September 01, 2015 (GMT -0400)
Bradley International | | Change Station
CLOSE
Current Station
Airport
Location: Windsor Locks,
Elevation: 180 ft
Nearby Weather Stations

Elev 180 ft 41.94 °N, 72.68 °W | Updated 48 minutes ago

Partly Cloudy
Partly Cloudy
85 °F
Feels Like 84 °F
N
5
Wind Variable Wind from NW

Today
High -- | Low -- °F
--% Chance of Precip.
Yesterday
High -- | Low -- °F
Precip. -- in
6:16 AM 7:24 PM
Waning Gibbous, 87% visible
Pressure 30.04 in
Visibility 10.0 miles
Clouds Few 4500 ft
Heat Index 84 °F
Dew Point 57 °F
Humidity 38%
Rainfall 0.00 in
Snow Depth Not available.
UV 8 out of 12
Pollen 9.80 out of 12
Air Quality Not available.
Flu Activity Not available.
METAR KBDL 011751Z 32004KT 10SM FEW045 29/14 A3004 RMK AO2 SLP171 T02940139 10294 20206 58007
Pressure 30.04 in
Visibility 10.0 miles
Clouds Few 4500 ft
Heat Index 84 °F
Dew Point 57 °F
Humidity 38%
Rainfall 0.00 in
Snow Depth Not available.
UV 8 out of 12
Pollen 9.80 out of 12
Air Quality Not available.
Flu Activity Not available.
METAR KBDL 011751Z 32004KT 10SM FEW045 29/14 A3004 RMK AO2 SLP171 T02940139 10294 20206 58007

10-Day Weather Forecast

×

Almanac

Astronomy

Sep. 01, 2015 Rise Set
Actual Time
Civil Twilight
Nautical Twilight
Astronomical Twilight
Moon
Length of Visible Light
Length of Day
Tomorrow will be .
, % of the Moon is Illuminated

Today's Extremes

State Highs State Lows

Community

WunderPhotos

Upload Photos

1,851,593 photos uploaded!

WunderBlogs® & News

Nearby

Air Quality

  Air Quality AQ Index Pollutant
Not available.

Snow Depth

Station Depth Elevation

Earthquake Activity

City Distance Mag. Time & Date
Minimum magnitude displayed is 2.5.

Coastal Water Temperatures

Place Temperature

Stations

Nearby Weather Stations

Station Location Temp. Windchill Dew Point Humidity Wind Precip. Elev Updated Type